sensor_id;sensor_type;location;lat;lon;timestamp;pressure;altitude;pressure_sealevel;temperature;humidity
4586;BME280;2305;50.118;8.952;2023-02-19T00:01:21;100949.38;;;11.35;100.00
4586;BME280;2305;50.118;8.952;2023-02-19T00:03:51;100939.28;;;11.29;100.00
4586;BME280;2305;50.118;8.952;2023-02-19T00:06:22;100950.94;;;11.38;100.00
4586;BME280;2305;50.118;8.952;2023-02-19T00:08:51;100944.81;;;11.37;100.00
4586;BME280;2305;50.118;8.952;2023-02-19T00:11:21;100945.06;;;11.34;100.00
4586;BME280;2305;50.118;8.952;2023-02-19T00:13:50;100943.16;;;11.36;100.00
4586;BME280;2305;50.118;8.952;2023-02-19T00:16:22;100936.81;;;11.50;100.00
4586;BME280;2305;50.118;8.952;2023-02-19T00:18:52;100941.56;;;11.34;100.00
4586;BME280;2305;50.118;8.952;2023-02-19T00:21:21;100937.06;;;11.47;100.00
4586;BME280;2305;50.118;8.952;2023-02-19T00:23:53;100929.94;;;11.36;100.00
4586;BME280;2305;50.118;8.952;2023-02-19T00:26:22;100932.06;;;11.20;100.00
4586;BME280;2305;50.118;8.952;2023-02-19T00:28:54;100918.41;;;11.26;100.00
4586;BME280;2305;50.118;8.952;2023-02-19T00:31:26;100919.69;;;11.21;100.00
4586;BME280;2305;50.118;8.952;2023-02-19T00:34:00;100914.47;;;11.32;100.00
4586;BME280;2305;50.118;8.952;2023-02-19T00:36:30;100917.47;;;11.38;100.00
4586;BME280;2305;50.118;8.952;2023-02-19T00:38:58;100909.31;;;11.30;100.00
4586;BME280;2305;50.118;8.952;2023-02-19T00:41:27;100916.03;;;11.34;100.00
4586;BME280;2305;50.118;8.952;2023-02-19T00:43:57;100918.41;;;11.26;100.00
4586;BME280;2305;50.118;8.952;2023-02-19T00:46:32;100916.69;;;11.14;100.00
4586;BME280;2305;50.118;8.952;2023-02-19T00:49:02;100927.50;;;11.22;100.00
4586;BME280;2305;50.118;8.952;2023-02-19T00:51:32;100926.81;;;11.31;100.00
4586;BME280;2305;50.118;8.952;2023-02-19T00:54:00;100916.84;;;11.24;100.00
4586;BME280;2305;50.118;8.952;2023-02-19T00:56:28;100924.63;;;11.25;100.00
4586;BME280;2305;50.118;8.952;2023-02-19T00:58:56;100911.69;;;11.22;100.00
4586;BME280;2305;50.118;8.952;2023-02-19T01:01:24;100886.88;;;11.25;100.00
4586;BME280;2305;50.118;8.952;2023-02-19T01:03:53;100901.38;;;11.30;100.00
4586;BME280;2305;50.118;8.952;2023-02-19T01:06:21;100917.31;;;11.29;100.00
4586;BME280;2305;50.118;8.952;2023-02-19T01:08:50;100890.03;;;11.41;100.00
4586;BME280;2305;50.118;8.952;2023-02-19T01:11:18;100901.19;;;11.44;100.00
4586;BME280;2305;50.118;8.952;2023-02-19T01:13:46;100909.19;;;11.32;100.00
4586;BME280;2305;50.118;8.952;2023-02-19T01:16:19;100897.13;;;11.40;100.00
4586;BME280;2305;50.118;8.952;2023-02-19T01:18:48;100890.84;;;11.30;100.00
4586;BME280;2305;50.118;8.952;2023-02-19T01:21:21;100894.69;;;11.26;100.00
4586;BME280;2305;50.118;8.952;2023-02-19T01:23:50;100892.84;;;11.27;100.00
4586;BME280;2305;50.118;8.952;2023-02-19T01:26:21;100898.53;;;11.33;100.00
4586;BME280;2305;50.118;8.952;2023-02-19T01:28:50;100892.09;;;11.14;100.00
4586;BME280;2305;50.118;8.952;2023-02-19T01:31:21;100883.38;;;11.24;100.00
4586;BME280;2305;50.118;8.952;2023-02-19T01:33:51;100887.72;;;11.36;100.00
4586;BME280;2305;50.118;8.952;2023-02-19T01:36:21;100897.94;;;11.30;100.00
4586;BME280;2305;50.118;8.952;2023-02-19T01:38:49;100880.47;;;11.16;100.00
4586;BME280;2305;50.118;8.952;2023-02-19T01:41:21;100885.03;;;11.14;100.00
4586;BME280;2305;50.118;8.952;2023-02-19T01:43:55;100892.25;;;11.23;100.00
4586;BME280;2305;50.118;8.952;2023-02-19T01:46:24;100875.56;;;11.12;100.00
4586;BME280;2305;50.118;8.952;2023-02-19T01:48:54;100878.34;;;11.21;100.00
4586;BME280;2305;50.118;8.952;2023-02-19T01:51:25;100871.41;;;11.20;100.00
4586;BME280;2305;50.118;8.952;2023-02-19T01:53:56;100873.06;;;11.21;100.00
4586;BME280;2305;50.118;8.952;2023-02-19T01:56:50;100879.50;;;11.17;100.00
4586;BME280;2305;50.118;8.952;2023-02-19T01:59:18;100880.25;;;11.19;100.00
4586;BME280;2305;50.118;8.952;2023-02-19T02:01:47;100868.50;;;11.23;100.00
4586;BME280;2305;50.118;8.952;2023-02-19T02:04:16;100862.53;;;11.21;100.00
4586;BME280;2305;50.118;8.952;2023-02-19T02:06:50;100869.13;;;11.27;100.00
4586;BME280;2305;50.118;8.952;2023-02-19T02:09:23;100870.94;;;11.26;100.00
4586;BME280;2305;50.118;8.952;2023-02-19T02:12:10;100872.00;;;11.35;100.00
4586;BME280;2305;50.118;8.952;2023-02-19T02:14:42;100869.63;;;11.32;100.00
4586;BME280;2305;50.118;8.952;2023-02-19T02:17:19;100858.81;;;11.24;100.00
4586;BME280;2305;50.118;8.952;2023-02-19T02:20:18;100857.13;;;11.23;100.00
4586;BME280;2305;50.118;8.952;2023-02-19T02:22:59;100851.09;;;11.10;100.00
4586;BME280;2305;50.118;8.952;2023-02-19T02:25:49;100842.22;;;11.11;100.00
4586;BME280;2305;50.118;8.952;2023-02-19T02:28:38;100842.84;;;11.14;100.00
4586;BME280;2305;50.118;8.952;2023-02-19T02:31:17;100842.25;;;11.22;100.00
4586;BME280;2305;50.118;8.952;2023-02-19T02:33:53;100836.94;;;11.11;100.00
4586;BME280;2305;50.118;8.952;2023-02-19T02:36:28;100840.66;;;11.08;100.00
4586;BME280;2305;50.118;8.952;2023-02-19T02:38:59;100831.78;;;11.09;100.00
4586;BME280;2305;50.118;8.952;2023-02-19T02:41:31;100832.63;;;11.10;100.00
4586;BME280;2305;50.118;8.952;2023-02-19T02:44:00;100846.53;;;11.12;100.00
4586;BME280;2305;50.118;8.952;2023-02-19T02:46:33;100837.78;;;11.11;100.00
4586;BME280;2305;50.118;8.952;2023-02-19T02:49:05;100847.41;;;11.12;100.00
4586;BME280;2305;50.118;8.952;2023-02-19T02:51:39;100847.41;;;11.12;100.00
4586;BME280;2305;50.118;8.952;2023-02-19T02:54:17;100837.06;;;11.09;100.00
4586;BME280;2305;50.118;8.952;2023-02-19T02:57:08;100832.91;;;11.18;100.00
4586;BME280;2305;50.118;8.952;2023-02-19T02:59:46;100833.31;;;11.01;100.00
4586;BME280;2305;50.118;8.952;2023-02-19T03:02:22;100822.63;;;10.91;100.00
4586;BME280;2305;50.118;8.952;2023-02-19T03:04:53;100819.50;;;10.86;100.00
4586;BME280;2305;50.118;8.952;2023-02-19T03:07:45;100821.63;;;10.81;100.00
4586;BME280;2305;50.118;8.952;2023-02-19T03:10:21;100817.38;;;10.91;100.00
4586;BME280;2305;50.118;8.952;2023-02-19T03:12:52;100823.34;;;10.93;100.00
4586;BME280;2305;50.118;8.952;2023-02-19T03:15:43;100826.81;;;10.94;100.00
4586;BME280;2305;50.118;8.952;2023-02-19T03:18:47;100814.84;;;11.01;100.00
4586;BME280;2305;50.118;8.952;2023-02-19T03:21:36;100815.19;;;10.96;100.00
4586;BME280;2305;50.118;8.952;2023-02-19T03:24:28;100818.59;;;11.09;100.00
4586;BME280;2305;50.118;8.952;2023-02-19T03:27:18;100821.59;;;11.05;100.00
4586;BME280;2305;50.118;8.952;2023-02-19T03:29:53;100814.03;;;11.00;100.00
4586;BME280;2305;50.118;8.952;2023-02-19T03:32:26;100818.28;;;11.25;100.00
4586;BME280;2305;50.118;8.952;2023-02-19T03:35:01;100819.56;;;11.08;100.00
4586;BME280;2305;50.118;8.952;2023-02-19T03:37:35;100824.47;;;11.13;100.00
4586;BME280;2305;50.118;8.952;2023-02-19T03:40:06;100813.31;;;11.09;100.00
4586;BME280;2305;50.118;8.952;2023-02-19T03:42:40;100812.16;;;11.13;100.00
4586;BME280;2305;50.118;8.952;2023-02-19T03:45:36;100816.06;;;11.08;100.00
4586;BME280;2305;50.118;8.952;2023-02-19T03:48:21;100819.31;;;11.11;100.00
4586;BME280;2305;50.118;8.952;2023-02-19T03:51:02;100811.91;;;11.16;100.00
4586;BME280;2305;50.118;8.952;2023-02-19T03:53:33;100822.34;;;11.18;100.00
4586;BME280;2305;50.118;8.952;2023-02-19T03:56:07;100824.59;;;11.11;100.00
4586;BME280;2305;50.118;8.952;2023-02-19T03:58:43;100821.94;;;11.11;100.00
4586;BME280;2305;50.118;8.952;2023-02-19T04:01:18;100830.25;;;11.18;100.00
4586;BME280;2305;50.118;8.952;2023-02-19T04:03:53;100836.09;;;11.10;100.00
4586;BME280;2305;50.118;8.952;2023-02-19T04:06:28;100854.09;;;11.05;100.00
4586;BME280;2305;50.118;8.952;2023-02-19T04:08:59;100847.72;;;11.08;100.00
4586;BME280;2305;50.118;8.952;2023-02-19T04:11:30;100841.84;;;11.04;100.00
4586;BME280;2305;50.118;8.952;2023-02-19T04:14:06;100839.00;;;11.18;100.00
4586;BME280;2305;50.118;8.952;2023-02-19T04:16:39;100843.75;;;11.02;100.00
4586;BME280;2305;50.118;8.952;2023-02-19T04:19:16;100839.16;;;10.93;100.00
4586;BME280;2305;50.118;8.952;2023-02-19T04:21:48;100831.63;;;11.00;100.00
4586;BME280;2305;50.118;8.952;2023-02-19T04:24:23;100832.69;;;10.97;100.00
4586;BME280;2305;50.118;8.952;2023-02-19T04:26:52;100839.19;;;11.04;100.00
4586;BME280;2305;50.118;8.952;2023-02-19T04:29:24;100844.81;;;11.00;100.00
4586;BME280;2305;50.118;8.952;2023-02-19T04:31:52;100837.75;;;11.00;100.00
4586;BME280;2305;50.118;8.952;2023-02-19T04:34:21;100858.34;;;10.95;100.00
4586;BME280;2305;50.118;8.952;2023-02-19T04:36:50;100855.19;;;10.90;100.00
4586;BME280;2305;50.118;8.952;2023-02-19T04:39:21;100849.88;;;11.03;100.00
4586;BME280;2305;50.118;8.952;2023-02-19T04:41:49;100851.94;;;10.76;100.00
4586;BME280;2305;50.118;8.952;2023-02-19T04:44:18;100847.28;;;10.79;100.00
4586;BME280;2305;50.118;8.952;2023-02-19T04:46:46;100842.09;;;10.78;100.00
4586;BME280;2305;50.118;8.952;2023-02-19T04:49:14;100843.75;;;10.68;100.00
4586;BME280;2305;50.118;8.952;2023-02-19T04:51:42;100853.50;;;10.55;100.00
4586;BME280;2305;50.118;8.952;2023-02-19T04:54:12;100856.03;;;10.56;100.00
4586;BME280;2305;50.118;8.952;2023-02-19T04:56:40;100868.97;;;10.59;100.00
4586;BME280;2305;50.118;8.952;2023-02-19T04:59:08;100859.56;;;10.68;100.00
4586;BME280;2305;50.118;8.952;2023-02-19T05:01:37;100872.16;;;10.75;100.00
4586;BME280;2305;50.118;8.952;2023-02-19T05:04:05;100870.88;;;10.81;100.00
4586;BME280;2305;50.118;8.952;2023-02-19T05:06:34;100872.31;;;10.85;100.00
4586;BME280;2305;50.118;8.952;2023-02-19T05:09:03;100867.66;;;10.88;100.00
4586;BME280;2305;50.118;8.952;2023-02-19T05:11:32;100878.47;;;10.96;100.00
4586;BME280;2305;50.118;8.952;2023-02-19T05:14:01;100872.25;;;10.97;100.00
4586;BME280;2305;50.118;8.952;2023-02-19T05:16:29;100875.63;;;10.99;100.00
4586;BME280;2305;50.118;8.952;2023-02-19T05:18:58;100876.53;;;10.87;100.00
4586;BME280;2305;50.118;8.952;2023-02-19T05:21:30;100876.09;;;11.04;100.00
4586;BME280;2305;50.118;8.952;2023-02-19T05:23:58;100863.78;;;11.05;100.00
4586;BME280;2305;50.118;8.952;2023-02-19T05:26:26;100877.06;;;11.03;100.00
4586;BME280;2305;50.118;8.952;2023-02-19T05:28:58;100866.25;;;10.95;100.00
4586;BME280;2305;50.118;8.952;2023-02-19T05:31:27;100871.78;;;10.92;100.00
4586;BME280;2305;50.118;8.952;2023-02-19T05:33:56;100870.81;;;10.93;100.00
4586;BME280;2305;50.118;8.952;2023-02-19T05:36:26;100881.88;;;10.98;100.00
4586;BME280;2305;50.118;8.952;2023-02-19T05:38:55;100879.78;;;10.91;100.00
4586;BME280;2305;50.118;8.952;2023-02-19T05:41:25;100886.63;;;10.93;100.00
4586;BME280;2305;50.118;8.952;2023-02-19T05:43:54;100887.59;;;10.92;100.00
4586;BME280;2305;50.118;8.952;2023-02-19T05:46:26;100878.00;;;10.91;100.00
4586;BME280;2305;50.118;8.952;2023-02-19T05:48:55;100878.34;;;10.87;100.00
4586;BME280;2305;50.118;8.952;2023-02-19T05:51:25;100879.84;;;11.02;100.00
4586;BME280;2305;50.118;8.952;2023-02-19T05:53:56;100878.28;;;10.99;100.00
4586;BME280;2305;50.118;8.952;2023-02-19T05:56:32;100874.88;;;10.97;100.00
4586;BME280;2305;50.118;8.952;2023-02-19T05:59:02;100875.38;;;11.02;100.00
4586;BME280;2305;50.118;8.952;2023-02-19T06:01:34;100883.53;;;10.99;100.00
4586;BME280;2305;50.118;8.952;2023-02-19T06:04:03;100882.78;;;10.97;100.00
4586;BME280;2305;50.118;8.952;2023-02-19T06:06:31;100887.88;;;11.11;100.00
4586;BME280;2305;50.118;8.952;2023-02-19T06:08:59;100900.16;;;11.12;100.00
4586;BME280;2305;50.118;8.952;2023-02-19T06:11:28;100893.06;;;11.13;100.00
4586;BME280;2305;50.118;8.952;2023-02-19T06:13:57;100901.56;;;11.16;100.00
4586;BME280;2305;50.118;8.952;2023-02-19T06:16:26;100898.13;;;11.16;100.00
4586;BME280;2305;50.118;8.952;2023-02-19T06:18:55;100915.47;;;11.07;100.00
4586;BME280;2305;50.118;8.952;2023-02-19T06:21:26;100914.88;;;11.15;100.00
4586;BME280;2305;50.118;8.952;2023-02-19T06:23:54;100906.94;;;11.04;100.00
4586;BME280;2305;50.118;8.952;2023-02-19T06:26:23;100922.69;;;10.93;100.00
4586;BME280;2305;50.118;8.952;2023-02-19T06:28:52;100935.84;;;11.05;100.00
4586;BME280;2305;50.118;8.952;2023-02-19T06:31:21;100934.63;;;11.09;100.00
4586;BME280;2305;50.118;8.952;2023-02-19T06:33:49;100931.66;;;10.90;100.00
4586;BME280;2305;50.118;8.952;2023-02-19T06:36:20;100938.03;;;10.88;100.00
4586;BME280;2305;50.118;8.952;2023-02-19T06:38:48;100940.88;;;10.85;100.00
4586;BME280;2305;50.118;8.952;2023-02-19T06:41:16;100940.09;;;10.95;100.00
4586;BME280;2305;50.118;8.952;2023-02-19T06:43:45;100934.19;;;10.92;100.00
4586;BME280;2305;50.118;8.952;2023-02-19T06:46:13;100952.44;;;10.95;100.00
4586;BME280;2305;50.118;8.952;2023-02-19T06:48:43;100949.19;;;10.91;100.00
4586;BME280;2305;50.118;8.952;2023-02-19T06:51:12;100951.06;;;10.89;100.00
4586;BME280;2305;50.118;8.952;2023-02-19T06:53:42;100962.13;;;10.94;100.00
4586;BME280;2305;50.118;8.952;2023-02-19T06:56:22;100954.59;;;11.01;100.00
4586;BME280;2305;50.118;8.952;2023-02-19T06:58:51;100978.97;;;11.04;100.00
4586;BME280;2305;50.118;8.952;2023-02-19T07:01:23;100973.47;;;11.07;100.00
4586;BME280;2305;50.118;8.952;2023-02-19T07:03:52;100974.53;;;11.05;100.00
4586;BME280;2305;50.118;8.952;2023-02-19T07:06:21;100977.06;;;11.06;100.00
4586;BME280;2305;50.118;8.952;2023-02-19T07:08:53;100979.03;;;11.15;100.00
4586;BME280;2305;50.118;8.952;2023-02-19T07:11:22;100985.97;;;11.16;100.00
4586;BME280;2305;50.118;8.952;2023-02-19T07:13:53;100991.88;;;11.20;100.00
4586;BME280;2305;50.118;8.952;2023-02-19T07:16:23;100989.75;;;11.25;100.00
4586;BME280;2305;50.118;8.952;2023-02-19T07:18:52;100982.38;;;11.17;100.00
4586;BME280;2305;50.118;8.952;2023-02-19T07:21:23;100996.81;;;11.24;100.00
4586;BME280;2305;50.118;8.952;2023-02-19T07:23:53;100995.38;;;11.20;100.00
4586;BME280;2305;50.118;8.952;2023-02-19T07:26:21;100996.94;;;11.23;100.00
4586;BME280;2305;50.118;8.952;2023-02-19T07:28:50;101001.69;;;11.18;100.00
4586;BME280;2305;50.118;8.952;2023-02-19T07:31:21;101004.78;;;11.12;100.00
4586;BME280;2305;50.118;8.952;2023-02-19T07:33:50;101009.94;;;10.90;100.00
4586;BME280;2305;50.118;8.952;2023-02-19T07:36:19;101009.84;;;10.91;100.00
4586;BME280;2305;50.118;8.952;2023-02-19T07:38:53;101013.91;;;10.95;100.00
4586;BME280;2305;50.118;8.952;2023-02-19T07:41:22;101026.19;;;10.84;100.00
4586;BME280;2305;50.118;8.952;2023-02-19T07:43:54;101024.03;;;11.01;100.00
4586;BME280;2305;50.118;8.952;2023-02-19T07:46:23;101026.47;;;10.92;100.00
4586;BME280;2305;50.118;8.952;2023-02-19T07:48:51;101037.13;;;10.90;100.00
4586;BME280;2305;50.118;8.952;2023-02-19T07:51:19;101030.94;;;10.79;100.00
4586;BME280;2305;50.118;8.952;2023-02-19T07:53:48;101035.66;;;10.86;100.00
4586;BME280;2305;50.118;8.952;2023-02-19T07:56:18;101038.22;;;10.88;100.00
4586;BME280;2305;50.118;8.952;2023-02-19T07:58:47;101053.84;;;10.78;100.00
4586;BME280;2305;50.118;8.952;2023-02-19T08:01:19;101049.81;;;10.85;100.00
4586;BME280;2305;50.118;8.952;2023-02-19T08:04:14;101051.56;;;10.97;100.00
4586;BME280;2305;50.118;8.952;2023-02-19T08:06:41;101060.66;;;10.93;100.00
4586;BME280;2305;50.118;8.952;2023-02-19T08:09:10;101055.56;;;11.03;100.00
4586;BME280;2305;50.118;8.952;2023-02-19T08:11:40;101064.72;;;10.97;100.00
4586;BME280;2305;50.118;8.952;2023-02-19T08:14:44;101063.88;;;11.09;100.00
4586;BME280;2305;50.118;8.952;2023-02-19T08:17:13;101063.53;;;11.14;100.00
4586;BME280;2305;50.118;8.952;2023-02-19T08:19:42;101066.31;;;11.12;100.00
4586;BME280;2305;50.118;8.952;2023-02-19T08:22:10;101066.41;;;11.11;100.00
4586;BME280;2305;50.118;8.952;2023-02-19T08:24:40;101069.03;;;11.11;100.00
4586;BME280;2305;50.118;8.952;2023-02-19T08:27:14;101076.72;;;11.14;100.00
4586;BME280;2305;50.118;8.952;2023-02-19T08:29:43;101082.91;;;11.25;100.00
4586;BME280;2305;50.118;8.952;2023-02-19T08:32:11;101083.44;;;11.30;100.00
4586;BME280;2305;50.118;8.952;2023-02-19T08:34:40;101093.78;;;11.33;100.00
4586;BME280;2305;50.118;8.952;2023-02-19T08:37:08;101109.09;;;11.28;100.00
4586;BME280;2305;50.118;8.952;2023-02-19T08:39:37;101120.88;;;11.35;100.00
4586;BME280;2305;50.118;8.952;2023-02-19T08:42:05;101123.41;;;11.37;100.00
4586;BME280;2305;50.118;8.952;2023-02-19T08:44:35;101126.88;;;11.37;100.00
4586;BME280;2305;50.118;8.952;2023-02-19T08:47:03;101131.44;;;11.35;100.00
4586;BME280;2305;50.118;8.952;2023-02-19T08:49:31;101134.06;;;11.35;100.00
4586;BME280;2305;50.118;8.952;2023-02-19T08:52:01;101149.06;;;11.35;100.00
4586;BME280;2305;50.118;8.952;2023-02-19T08:54:31;101148.66;;;11.28;100.00
4586;BME280;2305;50.118;8.952;2023-02-19T08:57:03;101146.97;;;11.27;100.00
4586;BME280;2305;50.118;8.952;2023-02-19T08:59:31;101152.25;;;11.27;100.00
4586;BME280;2305;50.118;8.952;2023-02-19T09:02:07;101157.19;;;11.32;100.00
4586;BME280;2305;50.118;8.952;2023-02-19T09:04:36;101158.34;;;11.40;100.00
4586;BME280;2305;50.118;8.952;2023-02-19T09:07:04;101155.91;;;11.37;100.00
4586;BME280;2305;50.118;8.952;2023-02-19T09:09:35;101147.59;;;11.31;100.00
4586;BME280;2305;50.118;8.952;2023-02-19T09:12:04;101157.53;;;11.27;100.00
4586;BME280;2305;50.118;8.952;2023-02-19T09:14:35;101160.50;;;11.23;100.00
4586;BME280;2305;50.118;8.952;2023-02-19T09:17:09;101153.84;;;11.17;100.00
4586;BME280;2305;50.118;8.952;2023-02-19T09:19:38;101163.47;;;11.06;100.00
4586;BME280;2305;50.118;8.952;2023-02-19T09:22:06;101170.31;;;11.08;100.00
4586;BME280;2305;50.118;8.952;2023-02-19T09:24:35;101168.28;;;11.24;100.00
4586;BME280;2305;50.118;8.952;2023-02-19T09:27:03;101164.50;;;11.28;100.00
4586;BME280;2305;50.118;8.952;2023-02-19T09:29:31;101179.66;;;11.37;100.00
4586;BME280;2305;50.118;8.952;2023-02-19T09:32:00;101178.16;;;11.46;100.00
4586;BME280;2305;50.118;8.952;2023-02-19T09:34:30;101171.91;;;11.59;100.00
4586;BME280;2305;50.118;8.952;2023-02-19T09:36:59;101172.34;;;11.66;100.00
4586;BME280;2305;50.118;8.952;2023-02-19T09:39:27;101163.81;;;11.62;100.00
4586;BME280;2305;50.118;8.952;2023-02-19T09:41:57;101177.09;;;11.61;100.00
4586;BME280;2305;50.118;8.952;2023-02-19T09:44:28;101177.59;;;11.53;100.00
4586;BME280;2305;50.118;8.952;2023-02-19T09:46:59;101178.22;;;11.57;100.00
4586;BME280;2305;50.118;8.952;2023-02-19T09:49:32;101171.16;;;11.70;100.00
4586;BME280;2305;50.118;8.952;2023-02-19T09:52:05;101169.91;;;11.63;100.00
4586;BME280;2305;50.118;8.952;2023-02-19T09:54:39;101174.34;;;11.62;100.00
4586;BME280;2305;50.118;8.952;2023-02-19T09:57:13;101174.31;;;11.75;100.00
4586;BME280;2305;50.118;8.952;2023-02-19T09:59:45;101171.38;;;11.67;100.00
4586;BME280;2305;50.118;8.952;2023-02-19T10:02:19;101179.16;;;11.68;100.00
4586;BME280;2305;50.118;8.952;2023-02-19T10:04:51;101191.53;;;11.68;100.00
4586;BME280;2305;50.118;8.952;2023-02-19T10:07:24;101187.25;;;11.78;100.00
4586;BME280;2305;50.118;8.952;2023-02-19T10:09:56;101189.84;;;11.67;100.00
4586;BME280;2305;50.118;8.952;2023-02-19T10:12:27;101194.28;;;11.66;100.00
4586;BME280;2305;50.118;8.952;2023-02-19T10:14:59;101193.41;;;11.78;100.00
4586;BME280;2305;50.118;8.952;2023-02-19T10:17:30;101193.50;;;11.77;100.00
4586;BME280;2305;50.118;8.952;2023-02-19T10:20:02;101201.53;;;11.75;100.00
4586;BME280;2305;50.118;8.952;2023-02-19T10:22:31;101212.72;;;11.79;100.00
4586;BME280;2305;50.118;8.952;2023-02-19T10:25:04;101212.00;;;11.77;100.00
4586;BME280;2305;50.118;8.952;2023-02-19T10:27:32;101206.66;;;11.89;100.00
4586;BME280;2305;50.118;8.952;2023-02-19T10:30:01;101209.53;;;11.86;100.00
4586;BME280;2305;50.118;8.952;2023-02-19T10:32:29;101217.72;;;11.94;100.00
4586;BME280;2305;50.118;8.952;2023-02-19T10:35:09;101213.47;;;12.04;100.00
4586;BME280;2305;50.118;8.952;2023-02-19T10:37:42;101216.50;;;12.11;100.00
4586;BME280;2305;50.118;8.952;2023-02-19T10:40:16;101220.63;;;12.15;100.00
4586;BME280;2305;50.118;8.952;2023-02-19T10:42:46;101221.44;;;12.15;100.00
4586;BME280;2305;50.118;8.952;2023-02-19T10:45:18;101227.97;;;12.22;100.00
4586;BME280;2305;50.118;8.952;2023-02-19T10:47:50;101239.31;;;12.35;100.00
4586;BME280;2305;50.118;8.952;2023-02-19T10:50:25;101259.22;;;12.28;100.00
4586;BME280;2305;50.118;8.952;2023-02-19T10:52:57;101253.44;;;12.23;100.00
4586;BME280;2305;50.118;8.952;2023-02-19T10:55:30;101271.09;;;12.23;100.00
4586;BME280;2305;50.118;8.952;2023-02-19T10:58:21;101275.03;;;12.41;100.00
4586;BME280;2305;50.118;8.952;2023-02-19T11:01:08;101269.38;;;12.45;100.00
4586;BME280;2305;50.118;8.952;2023-02-19T11:03:39;101264.53;;;12.39;100.00
4586;BME280;2305;50.118;8.952;2023-02-19T11:06:09;101275.88;;;12.41;100.00
4586;BME280;2305;50.118;8.952;2023-02-19T11:08:46;101274.31;;;12.50;100.00
4586;BME280;2305;50.118;8.952;2023-02-19T11:11:38;101273.69;;;12.70;100.00
4586;BME280;2305;50.118;8.952;2023-02-19T11:14:13;101279.13;;;12.68;100.00
4586;BME280;2305;50.118;8.952;2023-02-19T11:16:44;101282.69;;;12.67;100.00
4586;BME280;2305;50.118;8.952;2023-02-19T11:19:28;101285.50;;;12.53;100.00
4586;BME280;2305;50.118;8.952;2023-02-19T11:22:00;101291.91;;;12.51;100.00
4586;BME280;2305;50.118;8.952;2023-02-19T11:24:31;101284.41;;;12.68;100.00
4586;BME280;2305;50.118;8.952;2023-02-19T11:27:04;101280.84;;;12.57;100.00
4586;BME280;2305;50.118;8.952;2023-02-19T11:29:33;101286.03;;;12.58;100.00
4586;BME280;2305;50.118;8.952;2023-02-19T11:32:23;101284.44;;;12.56;100.00
4586;BME280;2305;50.118;8.952;2023-02-19T11:35:16;101300.28;;;12.68;100.00
4586;BME280;2305;50.118;8.952;2023-02-19T11:37:57;101291.38;;;12.69;100.00
4586;BME280;2305;50.118;8.952;2023-02-19T11:40:36;101290.16;;;12.62;100.00
4586;BME280;2305;50.118;8.952;2023-02-19T11:43:23;101299.59;;;12.54;100.00
4586;BME280;2305;50.118;8.952;2023-02-19T11:45:59;101300.03;;;12.48;100.00
4586;BME280;2305;50.118;8.952;2023-02-19T11:48:52;101293.31;;;12.44;100.00
4586;BME280;2305;50.118;8.952;2023-02-19T11:51:39;101285.66;;;12.28;100.00
4586;BME280;2305;50.118;8.952;2023-02-19T11:54:31;101286.91;;;12.35;100.00
4586;BME280;2305;50.118;8.952;2023-02-19T11:57:13;101275.03;;;12.41;100.00
4586;BME280;2305;50.118;8.952;2023-02-19T11:59:46;101282.06;;;12.64;100.00
4586;BME280;2305;50.118;8.952;2023-02-19T12:02:26;101279.13;;;12.68;100.00
4586;BME280;2305;50.118;8.952;2023-02-19T12:05:23;101269.75;;;12.75;100.00
4586;BME280;2305;50.118;8.952;2023-02-19T12:08:24;101282.94;;;12.64;100.00
4586;BME280;2305;50.118;8.952;2023-02-19T12:11:10;101270.13;;;12.47;100.00
4586;BME280;2305;50.118;8.952;2023-02-19T12:14:00;101278.53;;;12.52;100.00
4586;BME280;2305;50.118;8.952;2023-02-19T12:16:36;101283.78;;;12.65;100.00
4586;BME280;2305;50.118;8.952;2023-02-19T12:19:19;101277.59;;;12.53;100.00
4586;BME280;2305;50.118;8.952;2023-02-19T12:22:05;101274.63;;;12.58;100.00
4586;BME280;2305;50.118;8.952;2023-02-19T12:25:15;101279.13;;;12.68;100.00
4586;BME280;2305;50.118;8.952;2023-02-19T12:28:20;101279.22;;;13.01;100.00
4586;BME280;2305;50.118;8.952;2023-02-19T12:34:18;101272.66;;;13.40;100.00
4586;BME280;2305;50.118;8.952;2023-02-19T12:36:59;101286.63;;;13.53;100.00
4586;BME280;2305;50.118;8.952;2023-02-19T12:39:37;101287.34;;;13.55;100.00
4586;BME280;2305;50.118;8.952;2023-02-19T12:42:13;101285.66;;;13.54;100.00
4586;BME280;2305;50.118;8.952;2023-02-19T12:44:52;101283.25;;;13.62;100.00
4586;BME280;2305;50.118;8.952;2023-02-19T12:47:23;101281.69;;;13.70;100.00
4586;BME280;2305;50.118;8.952;2023-02-19T12:50:01;101262.91;;;13.62;100.00
4586;BME280;2305;50.118;8.952;2023-02-19T12:52:36;101271.56;;;13.53;100.00
4586;BME280;2305;50.118;8.952;2023-02-19T12:55:18;101257.75;;;13.39;100.00
4586;BME280;2305;50.118;8.952;2023-02-19T12:57:54;101246.91;;;13.42;100.00
4586;BME280;2305;50.118;8.952;2023-02-19T13:00:30;101258.34;;;13.42;100.00
4586;BME280;2305;50.118;8.952;2023-02-19T13:03:06;101251.72;;;13.37;100.00
4586;BME280;2305;50.118;8.952;2023-02-19T13:05:43;101251.72;;;13.26;100.00
4586;BME280;2305;50.118;8.952;2023-02-19T13:08:18;101269.50;;;13.13;100.00
4586;BME280;2305;50.118;8.952;2023-02-19T13:10:52;101273.72;;;13.04;100.00
4586;BME280;2305;50.118;8.952;2023-02-19T13:13:30;101258.06;;;13.01;100.00
4586;BME280;2305;50.118;8.952;2023-02-19T13:16:06;101271.06;;;13.04;100.00
4586;BME280;2305;50.118;8.952;2023-02-19T13:18:40;101266.84;;;13.02;100.00
4586;BME280;2305;50.118;8.952;2023-02-19T13:21:10;101272.00;;;13.03;100.00
4586;BME280;2305;50.118;8.952;2023-02-19T13:24:02;101266.84;;;13.02;100.00
4586;BME280;2305;50.118;8.952;2023-02-19T13:26:44;101266.94;;;13.00;100.00
4586;BME280;2305;50.118;8.952;2023-02-19T13:29:29;101275.53;;;13.15;100.00
4586;BME280;2305;50.118;8.952;2023-02-19T13:35:23;101270.59;;;13.21;100.00
4586;BME280;2305;50.118;8.952;2023-02-19T13:37:52;101275.31;;;13.29;100.00
4586;BME280;2305;50.118;8.952;2023-02-19T13:40:30;101280.84;;;13.37;100.00